sensor_id;sensor_type;location;lat;lon;timestamp;pressure;altitude;pressure_sealevel;temperature;humidity
26112;BME280;13829;48.990;8.346;2023-06-22T00:01:25;100375.34;;;22.40;100.00
26112;BME280;13829;48.990;8.346;2023-06-22T00:03:52;100378.19;;;22.35;100.00
26112;BME280;13829;48.990;8.346;2023-06-22T00:06:21;100381.50;;;22.61;100.00
26112;BME280;13829;48.990;8.346;2023-06-22T00:08:48;100367.88;;;22.46;100.00
26112;BME280;13829;48.990;8.346;2023-06-22T00:11:16;100369.16;;;22.38;100.00
26112;BME280;13829;48.990;8.346;2023-06-22T00:13:43;100380.28;;;22.28;100.00
26112;BME280;13829;48.990;8.346;2023-06-22T00:16:10;100395.41;;;22.29;100.00
26112;BME280;13829;48.990;8.346;2023-06-22T00:18:37;100445.22;;;22.34;100.00
26112;BME280;13829;48.990;8.346;2023-06-22T00:21:04;100529.78;;;22.41;100.00
26112;BME280;13829;48.990;8.346;2023-06-22T00:23:32;100616.84;;;22.53;100.00
26112;BME280;13829;48.990;8.346;2023-06-22T00:26:00;100665.50;;;22.43;100.00
26112;BME280;13829;48.990;8.346;2023-06-22T00:28:28;100654.38;;;22.53;100.00
26112;BME280;13829;48.990;8.346;2023-06-22T00:30:56;100522.56;;;22.63;100.00
26112;BME280;13829;48.990;8.346;2023-06-22T00:33:23;100446.06;;;22.56;100.00
26112;BME280;13829;48.990;8.346;2023-06-22T00:35:49;100401.56;;;22.31;100.00
26112;BME280;13829;48.990;8.346;2023-06-22T00:38:18;100382.88;;;22.09;100.00
26112;BME280;13829;48.990;8.346;2023-06-22T00:40:45;100386.50;;;21.88;100.00
26112;BME280;13829;48.990;8.346;2023-06-22T00:43:12;100390.66;;;21.73;100.00
26112;BME280;13829;48.990;8.346;2023-06-22T00:45:40;100412.34;;;21.66;100.00
26112;BME280;13829;48.990;8.346;2023-06-22T00:48:08;100417.69;;;21.66;100.00
26112;BME280;13829;48.990;8.346;2023-06-22T00:50:36;100410.84;;;21.59;100.00
26112;BME280;13829;48.990;8.346;2023-06-22T00:53:06;100405.00;;;21.72;100.00
26112;BME280;13829;48.990;8.346;2023-06-22T00:55:35;100411.34;;;21.69;100.00
26112;BME280;13829;48.990;8.346;2023-06-22T00:58:05;100424.78;;;21.67;100.00
26112;BME280;13829;48.990;8.346;2023-06-22T01:00:36;100429.72;;;21.55;100.00
26112;BME280;13829;48.990;8.346;2023-06-22T01:03:05;100425.56;;;21.47;100.00
26112;BME280;13829;48.990;8.346;2023-06-22T01:05:35;100428.16;;;21.49;100.00
26112;BME280;13829;48.990;8.346;2023-06-22T01:08:19;100413.16;;;21.23;100.00
26112;BME280;13829;48.990;8.346;2023-06-22T01:10:55;100432.47;;;21.31;100.00
26112;BME280;13829;48.990;8.346;2023-06-22T01:13:32;100423.09;;;21.19;100.00
26112;BME280;13829;48.990;8.346;2023-06-22T01:16:04;100403.66;;;21.38;100.00
26112;BME280;13829;48.990;8.346;2023-06-22T01:18:36;100407.19;;;21.38;100.00
26112;BME280;13829;48.990;8.346;2023-06-22T01:21:09;100406.66;;;21.06;100.00
26112;BME280;13829;48.990;8.346;2023-06-22T01:23:56;100412.91;;;21.07;100.00
26112;BME280;13829;48.990;8.346;2023-06-22T01:26:38;100411.31;;;21.01;100.00
26112;BME280;13829;48.990;8.346;2023-06-22T01:29:10;100414.75;;;21.05;100.00
26112;BME280;13829;48.990;8.346;2023-06-22T01:31:40;100422.66;;;20.84;100.00
26112;BME280;13829;48.990;8.346;2023-06-22T01:34:09;100419.22;;;20.80;100.00
26112;BME280;13829;48.990;8.346;2023-06-22T01:36:39;100422.69;;;20.82;100.00
26112;BME280;13829;48.990;8.346;2023-06-22T01:39:07;100420.22;;;20.78;100.00
26112;BME280;13829;48.990;8.346;2023-06-22T01:41:37;100416.84;;;20.73;100.00
26112;BME280;13829;48.990;8.346;2023-06-22T01:44:07;100421.00;;;20.80;100.00
26112;BME280;13829;48.990;8.346;2023-06-22T01:46:37;100414.56;;;20.85;100.00
26112;BME280;13829;48.990;8.346;2023-06-22T01:49:06;100410.91;;;20.88;100.00
26112;BME280;13829;48.990;8.346;2023-06-22T01:51:33;100417.63;;;20.75;100.00
26112;BME280;13829;48.990;8.346;2023-06-22T01:54:01;100414.94;;;20.76;100.00
26112;BME280;13829;48.990;8.346;2023-06-22T01:56:28;100422.13;;;20.74;100.00
26112;BME280;13829;48.990;8.346;2023-06-22T01:59:05;100419.00;;;20.61;100.00
26112;BME280;13829;48.990;8.346;2023-06-22T02:01:43;100414.16;;;20.73;100.00
26112;BME280;13829;48.990;8.346;2023-06-22T02:04:18;100409.78;;;20.70;100.00
26112;BME280;13829;48.990;8.346;2023-06-22T02:06:50;100410.31;;;20.80;100.00
26112;BME280;13829;48.990;8.346;2023-06-22T02:09:21;100399.19;;;20.67;100.00
26112;BME280;13829;48.990;8.346;2023-06-22T02:11:52;100405.31;;;20.71;100.00
26112;BME280;13829;48.990;8.346;2023-06-22T02:14:22;100414.72;;;20.57;100.00
26112;BME280;13829;48.990;8.346;2023-06-22T02:16:52;100409.94;;;20.65;100.00
26112;BME280;13829;48.990;8.346;2023-06-22T02:19:23;100408.47;;;20.82;100.00
26112;BME280;13829;48.990;8.346;2023-06-22T02:21:50;100404.72;;;20.62;100.00
26112;BME280;13829;48.990;8.346;2023-06-22T02:24:17;100407.25;;;20.65;100.00
26112;BME280;13829;48.990;8.346;2023-06-22T02:26:44;100404.03;;;20.57;100.00
26112;BME280;13829;48.990;8.346;2023-06-22T02:29:12;100410.44;;;20.51;100.00
26112;BME280;13829;48.990;8.346;2023-06-22T02:31:41;100403.88;;;20.60;100.00
26112;BME280;13829;48.990;8.346;2023-06-22T02:34:09;100408.69;;;20.50;100.00
26112;BME280;13829;48.990;8.346;2023-06-22T02:36:36;100397.78;;;20.57;100.00
26112;BME280;13829;48.990;8.346;2023-06-22T02:39:03;100394.28;;;20.54;100.00
26112;BME280;13829;48.990;8.346;2023-06-22T02:41:30;100384.72;;;20.49;100.00
26112;BME280;13829;48.990;8.346;2023-06-22T02:43:57;100378.88;;;20.37;100.00
26112;BME280;13829;48.990;8.346;2023-06-22T02:46:24;100373.38;;;20.42;100.00
26112;BME280;13829;48.990;8.346;2023-06-22T02:48:51;100376.97;;;20.41;100.00
26112;BME280;13829;48.990;8.346;2023-06-22T02:51:19;100378.31;;;20.29;100.00
26112;BME280;13829;48.990;8.346;2023-06-22T02:53:46;100385.38;;;20.30;100.00
26112;BME280;13829;48.990;8.346;2023-06-22T02:56:13;100379.50;;;20.46;100.00
26112;BME280;13829;48.990;8.346;2023-06-22T02:58:42;100372.06;;;20.54;100.00
26112;BME280;13829;48.990;8.346;2023-06-22T03:01:09;100367.22;;;20.40;100.00
26112;BME280;13829;48.990;8.346;2023-06-22T03:03:38;100367.00;;;20.46;100.00
26112;BME280;13829;48.990;8.346;2023-06-22T03:06:05;100358.34;;;20.40;100.00
26112;BME280;13829;48.990;8.346;2023-06-22T03:08:34;100351.03;;;20.45;100.00
26112;BME280;13829;48.990;8.346;2023-06-22T03:11:01;100362.75;;;20.64;100.00
26112;BME280;13829;48.990;8.346;2023-06-22T03:13:27;100358.81;;;20.51;100.00
26112;BME280;13829;48.990;8.346;2023-06-22T03:15:54;100356.31;;;20.46;100.00
26112;BME280;13829;48.990;8.346;2023-06-22T03:18:21;100361.81;;;20.42;100.00
26112;BME280;13829;48.990;8.346;2023-06-22T03:20:49;100368.06;;;20.41;100.00
26112;BME280;13829;48.990;8.346;2023-06-22T03:23:15;100364.53;;;20.40;100.00
26112;BME280;13829;48.990;8.346;2023-06-22T03:25:44;100370.66;;;20.44;100.00
26112;BME280;13829;48.990;8.346;2023-06-22T03:28:11;100366.34;;;20.40;100.00
26112;BME280;13829;48.990;8.346;2023-06-22T03:30:38;100371.09;;;20.31;100.00
26112;BME280;13829;48.990;8.346;2023-06-22T03:33:05;100367.63;;;20.29;100.00
26112;BME280;13829;48.990;8.346;2023-06-22T03:35:32;100368.13;;;20.39;100.00
26112;BME280;13829;48.990;8.346;2023-06-22T03:37:59;100362.28;;;20.29;100.00
26112;BME280;13829;48.990;8.346;2023-06-22T03:40:26;100353.44;;;20.27;100.00
26112;BME280;13829;48.990;8.346;2023-06-22T03:42:55;100357.81;;;20.30;100.00
26112;BME280;13829;48.990;8.346;2023-06-22T03:45:22;100361.94;;;20.39;100.00
26112;BME280;13829;48.990;8.346;2023-06-22T03:47:49;100349.38;;;20.41;100.00
26112;BME280;13829;48.990;8.346;2023-06-22T03:50:16;100343.53;;;20.54;100.00
26112;BME280;13829;48.990;8.346;2023-06-22T03:52:45;100348.94;;;20.53;100.00
26112;BME280;13829;48.990;8.346;2023-06-22T03:55:14;100341.66;;;20.33;100.00
26112;BME280;13829;48.990;8.346;2023-06-22T03:57:42;100334.63;;;20.30;100.00
26112;BME280;13829;48.990;8.346;2023-06-22T04:00:13;100344.03;;;20.41;100.00
26112;BME280;13829;48.990;8.346;2023-06-22T04:02:41;100338.69;;;20.41;100.00
26112;BME280;13829;48.990;8.346;2023-06-22T04:05:09;100347.44;;;20.46;100.00
26112;BME280;13829;48.990;8.346;2023-06-22T04:07:38;100337.31;;;20.54;100.00
26112;BME280;13829;48.990;8.346;2023-06-22T04:10:06;100336.63;;;20.49;100.00
26112;BME280;13829;48.990;8.346;2023-06-22T04:12:34;100337.22;;;20.57;100.00
26112;BME280;13829;48.990;8.346;2023-06-22T04:15:01;100333.28;;;20.67;100.00
26112;BME280;13829;48.990;8.346;2023-06-22T04:17:29;100325.06;;;20.74;100.00
26112;BME280;13829;48.990;8.346;2023-06-22T04:19:56;100333.88;;;20.76;100.00
26112;BME280;13829;48.990;8.346;2023-06-22T04:22:23;100326.75;;;20.75;100.00
26112;BME280;13829;48.990;8.346;2023-06-22T04:24:50;100326.19;;;20.90;100.00
26112;BME280;13829;48.990;8.346;2023-06-22T04:27:18;100324.56;;;20.86;100.00
26112;BME280;13829;48.990;8.346;2023-06-22T04:29:45;100324.91;;;21.00;100.00
26112;BME280;13829;48.990;8.346;2023-06-22T04:32:14;100326.97;;;20.92;100.00
26112;BME280;13829;48.990;8.346;2023-06-22T04:34:43;100329.66;;;20.92;100.00
26112;BME280;13829;48.990;8.346;2023-06-22T04:37:10;100324.06;;;20.98;100.00
26112;BME280;13829;48.990;8.346;2023-06-22T04:39:41;100316.97;;;20.97;100.00
26112;BME280;13829;48.990;8.346;2023-06-22T04:42:08;100318.41;;;21.06;100.00
26112;BME280;13829;48.990;8.346;2023-06-22T04:44:35;100316.97;;;20.97;100.00
26112;BME280;13829;48.990;8.346;2023-06-22T04:47:03;100316.19;;;20.95;100.00
26112;BME280;13829;48.990;8.346;2023-06-22T04:49:35;100308.03;;;20.98;100.00
26112;BME280;13829;48.990;8.346;2023-06-22T04:52:07;100308.97;;;20.97;100.00
26112;BME280;13829;48.990;8.346;2023-06-22T04:54:38;100308.22;;;21.16;100.00
26112;BME280;13829;48.990;8.346;2023-06-22T04:57:08;100307.53;;;21.11;100.00
26112;BME280;13829;48.990;8.346;2023-06-22T04:59:37;100311.72;;;21.18;100.00
26112;BME280;13829;48.990;8.346;2023-06-22T05:02:08;100309.94;;;21.39;100.00
26112;BME280;13829;48.990;8.346;2023-06-22T05:04:35;100302.41;;;21.49;100.00
26112;BME280;13829;48.990;8.346;2023-06-22T05:07:07;100298.59;;;21.56;100.00
26112;BME280;13829;48.990;8.346;2023-06-22T05:09:34;100298.03;;;21.69;100.00
26112;BME280;13829;48.990;8.346;2023-06-22T05:12:02;100299.41;;;21.79;100.00
26112;BME280;13829;48.990;8.346;2023-06-22T05:14:30;100299.41;;;21.79;100.00
26112;BME280;13829;48.990;8.346;2023-06-22T05:16:57;100295.66;;;21.83;100.00
26112;BME280;13829;48.990;8.346;2023-06-22T05:19:29;100292.91;;;21.85;100.00
26112;BME280;13829;48.990;8.346;2023-06-22T05:21:58;100292.94;;;22.04;100.00
26112;BME280;13829;48.990;8.346;2023-06-22T05:24:27;100284.53;;;22.13;100.00
26112;BME280;13829;48.990;8.346;2023-06-22T05:26:54;100295.50;;;22.07;100.00
26112;BME280;13829;48.990;8.346;2023-06-22T05:29:22;100284.25;;;21.98;100.00
26112;BME280;13829;48.990;8.346;2023-06-22T05:31:49;100282.25;;;22.04;100.00
26112;BME280;13829;48.990;8.346;2023-06-22T05:34:16;100287.19;;;21.92;100.00
26112;BME280;13829;48.990;8.346;2023-06-22T05:36:43;100282.50;;;22.18;100.00
26112;BME280;13829;48.990;8.346;2023-06-22T05:39:14;100287.22;;;22.32;100.00
26112;BME280;13829;48.990;8.346;2023-06-22T05:41:45;100273.34;;;22.43;100.00
26112;BME280;13829;48.990;8.346;2023-06-22T05:44:13;100283.22;;;22.61;100.00
26112;BME280;13829;48.990;8.346;2023-06-22T05:46:42;100287.41;;;22.86;100.00
26112;BME280;13829;48.990;8.346;2023-06-22T05:49:10;100282.03;;;22.86;100.00
26112;BME280;13829;48.990;8.346;2023-06-22T05:51:36;100295.94;;;22.94;100.00
26112;BME280;13829;48.990;8.346;2023-06-22T05:54:04;100296.09;;;22.91;100.00
26112;BME280;13829;48.990;8.346;2023-06-22T05:56:31;100296.69;;;22.98;100.00
26112;BME280;13829;48.990;8.346;2023-06-22T05:58:59;100285.06;;;22.97;100.00
26112;BME280;13829;48.990;8.346;2023-06-22T06:01:26;100290.38;;;22.99;100.00
26112;BME280;13829;48.990;8.346;2023-06-22T06:03:53;100284.63;;;23.07;100.00
26112;BME280;13829;48.990;8.346;2023-06-22T06:06:20;100290.00;;;23.07;100.00
26112;BME280;13829;48.990;8.346;2023-06-22T06:08:48;100297.44;;;23.19;100.00
26112;BME280;13829;48.990;8.346;2023-06-22T06:11:15;100291.09;;;23.39;100.00
26112;BME280;13829;48.990;8.346;2023-06-22T06:13:42;100285.03;;;23.53;100.00
26112;BME280;13829;48.990;8.346;2023-06-22T06:16:10;100280.44;;;24.08;100.00
26112;BME280;13829;48.990;8.346;2023-06-22T06:18:37;100278.53;;;24.59;99.96
26112;BME280;13829;48.990;8.346;2023-06-22T06:21:04;100272.50;;;24.72;97.74
26112;BME280;13829;48.990;8.346;2023-06-22T06:23:31;100265.25;;;24.74;98.68
26112;BME280;13829;48.990;8.346;2023-06-22T06:25:58;100275.94;;;25.83;89.58
26112;BME280;13829;48.990;8.346;2023-06-22T06:28:25;100279.09;;;26.34;85.06
26112;BME280;13829;48.990;8.346;2023-06-22T06:30:52;100269.38;;;26.46;80.53
26112;BME280;13829;48.990;8.346;2023-06-22T06:33:20;100255.47;;;26.67;81.80
26112;BME280;13829;48.990;8.346;2023-06-22T06:35:47;100262.31;;;27.55;75.85
26112;BME280;13829;48.990;8.346;2023-06-22T06:38:14;100258.91;;;28.30;71.30
26112;BME280;13829;48.990;8.346;2023-06-22T06:40:41;100253.00;;;28.62;69.14
26112;BME280;13829;48.990;8.346;2023-06-22T06:43:08;100256.38;;;29.38;67.13
26112;BME280;13829;48.990;8.346;2023-06-22T06:45:35;100244.84;;;30.06;62.81
26112;BME280;13829;48.990;8.346;2023-06-22T06:48:04;100249.59;;;29.68;62.26
26112;BME280;13829;48.990;8.346;2023-06-22T06:50:32;100254.19;;;29.43;63.01
26112;BME280;13829;48.990;8.346;2023-06-22T06:52:59;100234.59;;;28.67;65.85
26112;BME280;13829;48.990;8.346;2023-06-22T06:55:26;100233.09;;;28.50;66.72
26112;BME280;13829;48.990;8.346;2023-06-22T06:57:54;100234.41;;;28.44;66.96
26112;BME280;13829;48.990;8.346;2023-06-22T07:00:21;100225.13;;;28.86;67.22
26112;BME280;13829;48.990;8.346;2023-06-22T07:02:48;100232.25;;;29.35;64.69
26112;BME280;13829;48.990;8.346;2023-06-22T07:05:15;100227.84;;;28.97;65.38
26112;BME280;13829;48.990;8.346;2023-06-22T07:07:43;100226.19;;;29.67;63.72
26112;BME280;13829;48.990;8.346;2023-06-22T07:10:10;100217.69;;;30.74;59.97
26112;BME280;13829;48.990;8.346;2023-06-22T07:12:38;100217.22;;;30.12;60.92
26112;BME280;13829;48.990;8.346;2023-06-22T07:15:07;100226.25;;;30.58;58.80
26112;BME280;13829;48.990;8.346;2023-06-22T07:17:35;100230.41;;;30.62;59.06
26112;BME280;13829;48.990;8.346;2023-06-22T07:20:03;100220.63;;;31.15;57.15
26112;BME280;13829;48.990;8.346;2023-06-22T07:22:34;100203.25;;;31.38;55.68
26112;BME280;13829;48.990;8.346;2023-06-22T07:25:03;100213.91;;;31.94;55.11
26112;BME280;13829;48.990;8.346;2023-06-22T07:27:36;100222.47;;;31.47;53.40
26112;BME280;13829;48.990;8.346;2023-06-22T07:30:06;100204.78;;;31.74;53.44
26112;BME280;13829;48.990;8.346;2023-06-22T07:32:33;100189.19;;;32.07;52.02
26112;BME280;13829;48.990;8.346;2023-06-22T07:35:00;100197.94;;;31.58;53.81
26112;BME280;13829;48.990;8.346;2023-06-22T07:37:28;100212.75;;;31.65;51.39
26112;BME280;13829;48.990;8.346;2023-06-22T07:39:57;100222.53;;;31.56;50.60
26112;BME280;13829;48.990;8.346;2023-06-22T07:42:26;100207.50;;;31.74;50.48
26112;BME280;13829;48.990;8.346;2023-06-22T07:44:58;100211.38;;;31.38;51.35
26112;BME280;13829;48.990;8.346;2023-06-22T07:47:25;100198.53;;;30.75;53.52
26112;BME280;13829;48.990;8.346;2023-06-22T07:49:58;100199.66;;;31.05;54.71
26112;BME280;13829;48.990;8.346;2023-06-22T07:52:27;100200.72;;;31.89;52.87
26112;BME280;13829;48.990;8.346;2023-06-22T07:54:54;100212.78;;;32.27;50.13
26112;BME280;13829;48.990;8.346;2023-06-22T07:57:21;100215.34;;;32.29;49.50
26112;BME280;13829;48.990;8.346;2023-06-22T07:59:49;100205.50;;;32.07;49.60
26112;BME280;13829;48.990;8.346;2023-06-22T08:02:16;100211.66;;;32.09;48.86
26112;BME280;13829;48.990;8.346;2023-06-22T08:04:43;100209.31;;;32.25;47.81
26112;BME280;13829;48.990;8.346;2023-06-22T08:07:11;100216.34;;;32.78;47.50
26112;BME280;13829;48.990;8.346;2023-06-22T08:09:38;100213.13;;;32.53;47.31
26112;BME280;13829;48.990;8.346;2023-06-22T08:12:07;100213.16;;;32.63;47.40
26112;BME280;13829;48.990;8.346;2023-06-22T08:14:38;100219.22;;;32.77;46.42
26112;BME280;13829;48.990;8.346;2023-06-22T08:17:06;100235.84;;;32.83;46.36
26112;BME280;13829;48.990;8.346;2023-06-22T08:19:34;100230.00;;;32.07;46.92
26112;BME280;13829;48.990;8.346;2023-06-22T08:22:00;100232.19;;;32.13;47.21
26112;BME280;13829;48.990;8.346;2023-06-22T08:24:29;100258.69;;;32.42;46.91
26112;BME280;13829;48.990;8.346;2023-06-22T08:26:56;100253.25;;;33.12;48.35
26112;BME280;13829;48.990;8.346;2023-06-22T08:29:23;100255.03;;;32.72;45.57
26112;BME280;13829;48.990;8.346;2023-06-22T08:31:50;100262.56;;;32.99;46.03
26112;BME280;13829;48.990;8.346;2023-06-22T08:34:18;100257.72;;;32.22;47.43
26112;BME280;13829;48.990;8.346;2023-06-22T08:36:50;100262.66;;;32.38;48.19
26112;BME280;13829;48.990;8.346;2023-06-22T08:39:18;100246.84;;;32.62;46.97
26112;BME280;13829;48.990;8.346;2023-06-22T08:41:45;100248.38;;;32.55;45.83
26112;BME280;13829;48.990;8.346;2023-06-22T08:44:12;100225.66;;;32.25;47.38
26112;BME280;13829;48.990;8.346;2023-06-22T08:46:39;100219.81;;;31.99;48.43
26112;BME280;13829;48.990;8.346;2023-06-22T08:49:07;100202.34;;;32.01;48.73
26112;BME280;13829;48.990;8.346;2023-06-22T08:51:36;100202.38;;;31.80;48.77
26112;BME280;13829;48.990;8.346;2023-06-22T08:54:03;100195.09;;;31.38;49.96
26112;BME280;13829;48.990;8.346;2023-06-22T08:56:30;100191.19;;;32.04;51.23
26112;BME280;13829;48.990;8.346;2023-06-22T08:58:57;100207.53;;;32.14;49.73
26112;BME280;13829;48.990;8.346;2023-06-22T09:01:24;100217.69;;;31.81;48.40
26112;BME280;13829;48.990;8.346;2023-06-22T09:03:51;100220.94;;;31.54;49.38
26112;BME280;13829;48.990;8.346;2023-06-22T09:06:23;100218.16;;;31.23;50.96
26112;BME280;13829;48.990;8.346;2023-06-22T09:08:51;100221.84;;;31.22;50.54
26112;BME280;13829;48.990;8.346;2023-06-22T09:11:18;100213.13;;;31.39;49.60
26112;BME280;13829;48.990;8.346;2023-06-22T09:13:45;100220.94;;;31.54;49.10
26112;BME280;13829;48.990;8.346;2023-06-22T09:16:13;100210.97;;;32.07;49.58
26112;BME280;13829;48.990;8.346;2023-06-22T09:18:40;100203.25;;;32.12;48.64
26112;BME280;13829;48.990;8.346;2023-06-22T09:21:07;100207.53;;;32.55;50.65
26112;BME280;13829;48.990;8.346;2023-06-22T09:23:34;100194.25;;;32.72;46.35
26112;BME280;13829;48.990;8.346;2023-06-22T09:26:03;100187.31;;;32.38;46.65
26112;BME280;13829;48.990;8.346;2023-06-22T09:28:30;100187.88;;;32.32;46.92
26112;BME280;13829;48.990;8.346;2023-06-22T09:30:57;100189.91;;;32.40;49.35
26112;BME280;13829;48.990;8.346;2023-06-22T09:33:25;100184.06;;;32.13;47.21
26112;BME280;13829;48.990;8.346;2023-06-22T09:35:52;100179.44;;;32.04;47.66
26112;BME280;13829;48.990;8.346;2023-06-22T09:38:19;100171.00;;;32.07;51.14
26112;BME280;13829;48.990;8.346;2023-06-22T09:40:46;100144.81;;;32.16;50.25
26112;BME280;13829;48.990;8.346;2023-06-22T09:43:14;100133.25;;;32.14;48.80
26112;BME280;13829;48.990;8.346;2023-06-22T09:45:41;100133.13;;;32.25;50.32
26112;BME280;13829;48.990;8.346;2023-06-22T09:48:08;100133.72;;;32.29;47.94
26112;BME280;13829;48.990;8.346;2023-06-22T09:50:36;100141.66;;;32.11;50.27
26112;BME280;13829;48.990;8.346;2023-06-22T09:53:03;100124.06;;;32.05;48.03
26112;BME280;13829;48.990;8.346;2023-06-22T09:55:30;100121.50;;;31.73;48.69
26112;BME280;13829;48.990;8.346;2023-06-22T09:57:57;100106.03;;;31.21;49.88
26112;BME280;13829;48.990;8.346;2023-06-22T10:00:25;100106.09;;;31.10;49.86
26112;BME280;13829;48.990;8.346;2023-06-22T10:02:53;100111.16;;;30.82;51.57
26112;BME280;13829;48.990;8.346;2023-06-22T10:05:21;100120.28;;;31.13;53.72
26112;BME280;13829;48.990;8.346;2023-06-22T10:07:48;100116.38;;;30.95;51.10
26112;BME280;13829;48.990;8.346;2023-06-22T10:10:15;100121.44;;;30.99;52.53
26112;BME280;13829;48.990;8.346;2023-06-22T10:12:46;100132.03;;;31.14;52.41
26112;BME280;13829;48.990;8.346;2023-06-22T10:15:13;100136.13;;;31.29;53.23
26112;BME280;13829;48.990;8.346;2023-06-22T10:17:42;100143.06;;;31.22;50.72
26112;BME280;13829;48.990;8.346;2023-06-22T10:20:09;100130.03;;;31.04;51.51
26112;BME280;13829;48.990;8.346;2023-06-22T10:22:39;100127.31;;;31.04;52.47
26112;BME280;13829;48.990;8.346;2023-06-22T10:25:08;100122.38;;;30.88;52.19
26112;BME280;13829;48.990;8.346;2023-06-22T10:27:35;100119.66;;;30.88;52.32
26112;BME280;13829;48.990;8.346;2023-06-22T10:30:07;100115.41;;;30.74;51.53
26112;BME280;13829;48.990;8.346;2023-06-22T10:32:34;100114.97;;;30.58;52.12
26112;BME280;13829;48.990;8.346;2023-06-22T10:35:02;100115.88;;;30.80;54.93
26112;BME280;13829;48.990;8.346;2023-06-22T10:37:29;100113.03;;;31.02;53.92
26112;BME280;13829;48.990;8.346;2023-06-22T10:39:56;100107.28;;;31.17;53.79
26112;BME280;13829;48.990;8.346;2023-06-22T10:42:23;100113.91;;;30.70;51.58
26112;BME280;13829;48.990;8.346;2023-06-22T10:44:50;100099.34;;;30.71;52.61
26112;BME280;13829;48.990;8.346;2023-06-22T10:47:17;100097.03;;;30.67;52.08
26112;BME280;13829;48.990;8.346;2023-06-22T10:49:44;100093.97;;;30.60;53.11
26112;BME280;13829;48.990;8.346;2023-06-22T10:52:12;100096.59;;;30.83;53.68
26112;BME280;13829;48.990;8.346;2023-06-22T10:54:39;100104.59;;;30.84;54.10
26112;BME280;13829;48.990;8.346;2023-06-22T10:57:06;100088.81;;;31.11;55.64
26112;BME280;13829;48.990;8.346;2023-06-22T10:59:33;100085.88;;;30.81;51.32
26112;BME280;13829;48.990;8.346;2023-06-22T11:02:00;100094.69;;;31.16;51.85
26112;BME280;13829;48.990;8.346;2023-06-22T11:04:27;100097.69;;;31.13;51.29
26112;BME280;13829;48.990;8.346;2023-06-22T11:06:54;100101.72;;;31.39;52.54
26112;BME280;13829;48.990;8.346;2023-06-22T11:09:24;100100.28;;;31.66;53.12
26112;BME280;13829;48.990;8.346;2023-06-22T11:11:52;100104.63;;;31.79;52.14
26112;BME280;13829;48.990;8.346;2023-06-22T11:14:20;100101.34;;;31.54;50.96
26112;BME280;13829;48.990;8.346;2023-06-22T11:16:47;100097.19;;;31.50;52.03
26112;BME280;13829;48.990;8.346;2023-06-22T11:19:14;100095.53;;;31.37;51.63
26112;BME280;13829;48.990;8.346;2023-06-22T11:21:41;100091.28;;;31.45;51.56
26112;BME280;13829;48.990;8.346;2023-06-22T11:24:09;100088.97;;;31.40;51.75
26112;BME280;13829;48.990;8.346;2023-06-22T11:26:38;100075.63;;;31.58;52.23
26112;BME280;13829;48.990;8.346;2023-06-22T11:29:05;100083.03;;;31.87;53.00
26112;BME280;13829;48.990;8.346;2023-06-22T11:31:32;100086.31;;;31.81;51.12
26112;BME280;13829;48.990;8.346;2023-06-22T11:33:59;100086.09;;;31.94;50.46
26112;BME280;13829;48.990;8.346;2023-06-22T11:36:26;100081.16;;;31.78;50.86
26112;BME280;13829;48.990;8.346;2023-06-22T11:38:55;100080.88;;;31.81;51.10
26112;BME280;13829;48.990;8.346;2023-06-22T11:41:22;100087.34;;;31.59;51.30
26112;BME280;13829;48.990;8.346;2023-06-22T11:43:50;100078.00;;;31.73;51.41
26112;BME280;13829;48.990;8.346;2023-06-22T11:46:17;100083.72;;;31.69;52.94
26112;BME280;13829;48.990;8.346;2023-06-22T11:48:44;100084.59;;;31.80;53.54
26112;BME280;13829;48.990;8.346;2023-06-22T11:51:11;100097.06;;;31.82;55.17
26112;BME280;13829;48.990;8.346;2023-06-22T11:53:38;100097.06;;;31.92;54.54
26112;BME280;13829;48.990;8.346;2023-06-22T11:56:05;100099.78;;;31.92;53.09
26112;BME280;13829;48.990;8.346;2023-06-22T11:58:32;100102.38;;;31.84;52.89
26112;BME280;13829;48.990;8.346;2023-06-22T12:01:00;100104.63;;;31.79;51.76
26112;BME280;13829;48.990;8.346;2023-06-22T12:03:27;100099.44;;;31.76;51.67
26112;BME280;13829;48.990;8.346;2023-06-22T12:05:56;100096.63;;;31.56;51.18
26112;BME280;13829;48.990;8.346;2023-06-22T12:08:23;100091.94;;;31.58;51.14
26112;BME280;13829;48.990;8.346;2023-06-22T12:10:50;100094.59;;;31.69;52.56
26112;BME280;13829;48.990;8.346;2023-06-22T12:13:18;100101.19;;;31.77;52.94
26112;BME280;13829;48.990;8.346;2023-06-22T12:15:45;100092.22;;;31.86;53.54
26112;BME280;13829;48.990;8.346;2023-06-22T12:18:13;100096.63;;;31.87;54.71
26112;BME280;13829;48.990;8.346;2023-06-22T12:20:40;100087.22;;;31.91;53.78
26112;BME280;13829;48.990;8.346;2023-06-22T12:23:07;100089.34;;;31.97;53.58
26112;BME280;13829;48.990;8.346;2023-06-22T12:25:34;100086.63;;;31.97;54.05
26112;BME280;13829;48.990;8.346;2023-06-22T12:28:01;100094.66;;;31.89;54.01
26112;BME280;13829;48.990;8.346;2023-06-22T12:30:30;100102.28;;;32.05;55.92
26112;BME280;13829;48.990;8.346;2023-06-22T12:32:59;100113.56;;;32.00;55.65
26112;BME280;13829;48.990;8.346;2023-06-22T12:35:28;100117.28;;;31.99;55.60
26112;BME280;13829;48.990;8.346;2023-06-22T12:37:56;100118.13;;;31.90;55.95
26112;BME280;13829;48.990;8.346;2023-06-22T12:40:24;100114.38;;;31.81;56.20
26112;BME280;13829;48.990;8.346;2023-06-22T12:42:51;100115.78;;;31.76;55.53
26112;BME280;13829;48.990;8.346;2023-06-22T12:45:18;100110.91;;;31.69;58.05
26112;BME280;13829;48.990;8.346;2023-06-22T12:47:47;100112.75;;;31.69;58.38
26112;BME280;13829;48.990;8.346;2023-06-22T12:50:15;100100.50;;;31.53;57.85